sensor_id;sensor_type;location;lat;lon;timestamp;P1;durP1;ratioP1;P2;durP2;ratioP2
75160;SDS011;63738;50.096;8.716;2022-11-14T00:02:12;3.72;;;0.10;;
75160;SDS011;63738;50.096;8.716;2022-11-14T00:04:40;2.38;;;0.00;;
75160;SDS011;63738;50.096;8.716;2022-11-14T00:07:05;2.58;;;0.00;;
75160;SDS011;63738;50.096;8.716;2022-11-14T00:09:31;3.58;;;0.00;;
75160;SDS011;63738;50.096;8.716;2022-11-14T00:11:56;3.45;;;0.00;;
75160;SDS011;63738;50.096;8.716;2022-11-14T00:14:22;4.82;;;0.15;;
75160;SDS011;63738;50.096;8.716;2022-11-14T00:16:47;2.95;;;0.00;;
75160;SDS011;63738;50.096;8.716;2022-11-14T00:19:13;2.35;;;0.00;;
75160;SDS011;63738;50.096;8.716;2022-11-14T00:21:39;1.90;;;0.00;;
75160;SDS011;63738;50.096;8.716;2022-11-14T00:24:04;3.40;;;0.03;;
75160;SDS011;63738;50.096;8.716;2022-11-14T00:26:30;2.55;;;0.00;;
75160;SDS011;63738;50.096;8.716;2022-11-14T00:28:56;4.13;;;0.00;;
75160;SDS011;63738;50.096;8.716;2022-11-14T00:31:21;2.05;;;0.00;;
75160;SDS011;63738;50.096;8.716;2022-11-14T00:33:47;3.95;;;0.00;;
75160;SDS011;63738;50.096;8.716;2022-11-14T00:36:13;3.22;;;0.00;;
75160;SDS011;63738;50.096;8.716;2022-11-14T00:38:38;3.60;;;0.00;;
75160;SDS011;63738;50.096;8.716;2022-11-14T00:41:04;3.63;;;0.08;;
75160;SDS011;63738;50.096;8.716;2022-11-14T00:43:30;2.22;;;0.00;;
75160;SDS011;63738;50.096;8.716;2022-11-14T00:45:55;2.50;;;0.00;;
75160;SDS011;63738;50.096;8.716;2022-11-14T00:48:21;2.97;;;0.00;;
75160;SDS011;63738;50.096;8.716;2022-11-14T00:50:47;0.80;;;0.00;;
75160;SDS011;63738;50.096;8.716;2022-11-14T00:53:12;1.58;;;0.00;;
75160;SDS011;63738;50.096;8.716;2022-11-14T00:55:38;2.35;;;0.00;;
75160;SDS011;63738;50.096;8.716;2022-11-14T00:58:04;2.03;;;0.00;;
75160;SDS011;63738;50.096;8.716;2022-11-14T01:00:29;4.43;;;0.00;;
75160;SDS011;63738;50.096;8.716;2022-11-14T01:02:55;1.67;;;0.00;;
75160;SDS011;63738;50.096;8.716;2022-11-14T01:05:25;2.60;;;0.00;;
75160;SDS011;63738;50.096;8.716;2022-11-14T01:07:51;2.47;;;0.00;;
75160;SDS011;63738;50.096;8.716;2022-11-14T01:10:18;1.25;;;0.00;;
75160;SDS011;63738;50.096;8.716;2022-11-14T01:12:44;1.83;;;0.00;;
75160;SDS011;63738;50.096;8.716;2022-11-14T01:15:10;2.17;;;0.00;;
75160;SDS011;63738;50.096;8.716;2022-11-14T01:17:36;1.80;;;0.05;;
75160;SDS011;63738;50.096;8.716;2022-11-14T01:20:02;1.70;;;0.00;;
75160;SDS011;63738;50.096;8.716;2022-11-14T01:22:29;2.40;;;0.00;;
75160;SDS011;63738;50.096;8.716;2022-11-14T01:24:54;1.95;;;0.00;;
75160;SDS011;63738;50.096;8.716;2022-11-14T01:27:22;2.28;;;0.00;;
75160;SDS011;63738;50.096;8.716;2022-11-14T01:32:14;2.08;;;0.00;;
75160;SDS011;63738;50.096;8.716;2022-11-14T01:34:40;1.95;;;0.00;;
75160;SDS011;63738;50.096;8.716;2022-11-14T01:37:05;2.25;;;0.00;;
75160;SDS011;63738;50.096;8.716;2022-11-14T01:39:31;2.17;;;0.00;;
75160;SDS011;63738;50.096;8.716;2022-11-14T01:41:56;1.35;;;0.00;;
75160;SDS011;63738;50.096;8.716;2022-11-14T01:47:06;2.20;;;0.00;;
75160;SDS011;63738;50.096;8.716;2022-11-14T01:49:34;4.38;;;0.00;;
75160;SDS011;63738;50.096;8.716;2022-11-14T01:54:46;1.80;;;0.00;;
75160;SDS011;63738;50.096;8.716;2022-11-14T01:57:15;4.00;;;0.00;;
75160;SDS011;63738;50.096;8.716;2022-11-14T01:59:45;1.33;;;0.00;;
75160;SDS011;63738;50.096;8.716;2022-11-14T02:02:15;2.78;;;0.00;;
75160;SDS011;63738;50.096;8.716;2022-11-14T02:04:47;1.83;;;0.00;;
75160;SDS011;63738;50.096;8.716;2022-11-14T02:07:19;2.33;;;0.03;;
75160;SDS011;63738;50.096;8.716;2022-11-14T02:09:46;2.40;;;0.00;;
75160;SDS011;63738;50.096;8.716;2022-11-14T02:12:14;1.73;;;0.00;;
75160;SDS011;63738;50.096;8.716;2022-11-14T02:14:42;1.27;;;0.00;;
75160;SDS011;63738;50.096;8.716;2022-11-14T02:17:09;1.85;;;0.00;;
75160;SDS011;63738;50.096;8.716;2022-11-14T02:22:34;1.65;;;0.00;;
75160;SDS011;63738;50.096;8.716;2022-11-14T02:25:00;2.42;;;0.00;;
75160;SDS011;63738;50.096;8.716;2022-11-14T02:27:26;3.30;;;0.00;;
75160;SDS011;63738;50.096;8.716;2022-11-14T02:29:53;2.22;;;0.00;;
75160;SDS011;63738;50.096;8.716;2022-11-14T02:32:18;3.53;;;0.00;;
75160;SDS011;63738;50.096;8.716;2022-11-14T02:34:44;1.73;;;0.00;;
75160;SDS011;63738;50.096;8.716;2022-11-14T02:37:10;2.55;;;0.00;;
75160;SDS011;63738;50.096;8.716;2022-11-14T02:39:35;1.75;;;0.00;;
75160;SDS011;63738;50.096;8.716;2022-11-14T02:42:01;2.42;;;0.00;;
75160;SDS011;63738;50.096;8.716;2022-11-14T02:44:26;2.40;;;0.00;;
75160;SDS011;63738;50.096;8.716;2022-11-14T02:46:52;2.67;;;0.00;;
75160;SDS011;63738;50.096;8.716;2022-11-14T02:49:18;2.72;;;0.00;;
75160;SDS011;63738;50.096;8.716;2022-11-14T02:51:44;2.70;;;0.00;;
75160;SDS011;63738;50.096;8.716;2022-11-14T02:54:09;2.15;;;0.00;;
75160;SDS011;63738;50.096;8.716;2022-11-14T02:56:35;3.22;;;0.00;;
75160;SDS011;63738;50.096;8.716;2022-11-14T02:59:01;1.70;;;0.00;;
75160;SDS011;63738;50.096;8.716;2022-11-14T03:01:27;2.22;;;0.00;;
75160;SDS011;63738;50.096;8.716;2022-11-14T03:03:52;3.83;;;0.00;;
75160;SDS011;63738;50.096;8.716;2022-11-14T03:06:18;2.00;;;0.00;;
75160;SDS011;63738;50.096;8.716;2022-11-14T03:08:43;3.30;;;0.00;;
75160;SDS011;63738;50.096;8.716;2022-11-14T03:11:09;2.53;;;0.00;;
75160;SDS011;63738;50.096;8.716;2022-11-14T03:13:35;2.47;;;0.00;;
75160;SDS011;63738;50.096;8.716;2022-11-14T03:16:07;3.65;;;0.10;;
75160;SDS011;63738;50.096;8.716;2022-11-14T03:18:35;3.50;;;0.05;;
75160;SDS011;63738;50.096;8.716;2022-11-14T03:21:07;1.75;;;0.00;;
75160;SDS011;63738;50.096;8.716;2022-11-14T03:23:35;1.95;;;0.00;;
75160;SDS011;63738;50.096;8.716;2022-11-14T03:26:02;5.30;;;0.00;;
75160;SDS011;63738;50.096;8.716;2022-11-14T03:28:29;3.47;;;0.00;;
75160;SDS011;63738;50.096;8.716;2022-11-14T03:30:55;3.08;;;0.10;;
75160;SDS011;63738;50.096;8.716;2022-11-14T03:33:21;3.28;;;0.03;;
75160;SDS011;63738;50.096;8.716;2022-11-14T03:35:50;2.53;;;0.00;;
75160;SDS011;63738;50.096;8.716;2022-11-14T03:38:16;3.72;;;0.00;;
75160;SDS011;63738;50.096;8.716;2022-11-14T03:43:08;3.33;;;0.10;;
75160;SDS011;63738;50.096;8.716;2022-11-14T03:45:35;4.78;;;0.10;;
75160;SDS011;63738;50.096;8.716;2022-11-14T03:48:01;2.70;;;0.03;;
75160;SDS011;63738;50.096;8.716;2022-11-14T03:50:27;4.72;;;0.28;;
75160;SDS011;63738;50.096;8.716;2022-11-14T03:52:53;2.38;;;0.00;;
75160;SDS011;63738;50.096;8.716;2022-11-14T03:55:19;5.13;;;0.00;;
75160;SDS011;63738;50.096;8.716;2022-11-14T03:57:44;2.83;;;0.00;;
75160;SDS011;63738;50.096;8.716;2022-11-14T04:00:10;3.15;;;0.10;;
75160;SDS011;63738;50.096;8.716;2022-11-14T04:02:36;3.13;;;0.00;;
75160;SDS011;63738;50.096;8.716;2022-11-14T04:05:01;2.97;;;0.00;;
75160;SDS011;63738;50.096;8.716;2022-11-14T04:07:27;2.03;;;0.00;;
75160;SDS011;63738;50.096;8.716;2022-11-14T04:09:53;3.88;;;0.03;;
75160;SDS011;63738;50.096;8.716;2022-11-14T04:12:18;4.20;;;0.00;;
75160;SDS011;63738;50.096;8.716;2022-11-14T04:14:44;2.00;;;0.00;;
75160;SDS011;63738;50.096;8.716;2022-11-14T04:17:10;5.32;;;0.00;;
75160;SDS011;63738;50.096;8.716;2022-11-14T04:19:35;2.28;;;0.00;;
75160;SDS011;63738;50.096;8.716;2022-11-14T04:22:01;3.70;;;0.05;;
75160;SDS011;63738;50.096;8.716;2022-11-14T04:24:26;2.05;;;0.00;;
75160;SDS011;63738;50.096;8.716;2022-11-14T04:26:52;4.72;;;0.00;;
75160;SDS011;63738;50.096;8.716;2022-11-14T04:29:18;2.30;;;0.00;;
75160;SDS011;63738;50.096;8.716;2022-11-14T04:31:43;3.65;;;0.08;;
75160;SDS011;63738;50.096;8.716;2022-11-14T04:34:09;2.78;;;0.00;;
75160;SDS011;63738;50.096;8.716;2022-11-14T04:36:34;4.13;;;0.13;;
75160;SDS011;63738;50.096;8.716;2022-11-14T04:39:00;3.13;;;0.10;;
75160;SDS011;63738;50.096;8.716;2022-11-14T04:41:26;3.45;;;0.00;;
75160;SDS011;63738;50.096;8.716;2022-11-14T04:43:51;3.03;;;0.00;;
75160;SDS011;63738;50.096;8.716;2022-11-14T04:46:17;3.05;;;0.00;;
75160;SDS011;63738;50.096;8.716;2022-11-14T04:48:42;2.13;;;0.00;;
75160;SDS011;63738;50.096;8.716;2022-11-14T04:51:08;2.55;;;0.00;;
75160;SDS011;63738;50.096;8.716;2022-11-14T04:53:34;3.30;;;0.00;;
75160;SDS011;63738;50.096;8.716;2022-11-14T04:55:59;3.80;;;0.25;;
75160;SDS011;63738;50.096;8.716;2022-11-14T04:58:25;3.75;;;0.10;;
75160;SDS011;63738;50.096;8.716;2022-11-14T05:00:51;3.03;;;0.00;;
75160;SDS011;63738;50.096;8.716;2022-11-14T05:03:16;3.83;;;0.08;;
75160;SDS011;63738;50.096;8.716;2022-11-14T05:05:42;3.60;;;0.00;;
75160;SDS011;63738;50.096;8.716;2022-11-14T05:08:07;2.00;;;0.00;;
75160;SDS011;63738;50.096;8.716;2022-11-14T05:10:33;2.75;;;0.00;;
75160;SDS011;63738;50.096;8.716;2022-11-14T05:12:59;2.97;;;0.00;;
75160;SDS011;63738;50.096;8.716;2022-11-14T05:15:24;3.17;;;0.00;;
75160;SDS011;63738;50.096;8.716;2022-11-14T05:17:50;2.38;;;0.00;;
75160;SDS011;63738;50.096;8.716;2022-11-14T05:20:15;4.00;;;0.05;;
75160;SDS011;63738;50.096;8.716;2022-11-14T05:22:41;3.42;;;0.00;;
75160;SDS011;63738;50.096;8.716;2022-11-14T05:25:07;19.50;;;0.93;;
75160;SDS011;63738;50.096;8.716;2022-11-14T05:27:33;12.30;;;1.10;;
75160;SDS011;63738;50.096;8.716;2022-11-14T05:29:58;19.95;;;3.35;;
75160;SDS011;63738;50.096;8.716;2022-11-14T05:32:24;24.02;;;4.18;;
75160;SDS011;63738;50.096;8.716;2022-11-14T05:34:50;33.92;;;8.10;;
75160;SDS011;63738;50.096;8.716;2022-11-14T05:37:15;35.45;;;7.75;;
75160;SDS011;63738;50.096;8.716;2022-11-14T05:39:41;43.90;;;9.68;;
75160;SDS011;63738;50.096;8.716;2022-11-14T05:42:07;23.33;;;4.65;;
75160;SDS011;63738;50.096;8.716;2022-11-14T05:44:32;7.63;;;0.65;;
75160;SDS011;63738;50.096;8.716;2022-11-14T05:46:58;3.20;;;0.00;;
75160;SDS011;63738;50.096;8.716;2022-11-14T05:49:23;27.88;;;6.18;;
75160;SDS011;63738;50.096;8.716;2022-11-14T05:51:49;48.03;;;9.20;;
75160;SDS011;63738;50.096;8.716;2022-11-14T05:54:14;47.15;;;12.00;;
75160;SDS011;63738;50.096;8.716;2022-11-14T05:56:40;7.82;;;0.68;;
75160;SDS011;63738;50.096;8.716;2022-11-14T05:59:06;15.02;;;2.72;;
75160;SDS011;63738;50.096;8.716;2022-11-14T06:01:31;34.20;;;7.40;;
75160;SDS011;63738;50.096;8.716;2022-11-14T06:03:57;9.32;;;1.13;;
75160;SDS011;63738;50.096;8.716;2022-11-14T06:06:22;6.00;;;0.20;;
75160;SDS011;63738;50.096;8.716;2022-11-14T06:08:48;5.18;;;0.38;;
75160;SDS011;63738;50.096;8.716;2022-11-14T06:11:16;6.38;;;0.40;;
75160;SDS011;63738;50.096;8.716;2022-11-14T06:13:43;4.80;;;0.10;;
75160;SDS011;63738;50.096;8.716;2022-11-14T06:16:10;6.80;;;0.30;;
75160;SDS011;63738;50.096;8.716;2022-11-14T06:18:38;5.07;;;0.05;;
75160;SDS011;63738;50.096;8.716;2022-11-14T06:21:11;4.85;;;0.25;;
75160;SDS011;63738;50.096;8.716;2022-11-14T06:23:37;5.13;;;0.20;;
75160;SDS011;63738;50.096;8.716;2022-11-14T06:26:04;5.65;;;0.20;;
75160;SDS011;63738;50.096;8.716;2022-11-14T06:28:31;6.97;;;0.40;;
75160;SDS011;63738;50.096;8.716;2022-11-14T06:30:58;6.90;;;0.30;;
75160;SDS011;63738;50.096;8.716;2022-11-14T06:33:28;6.43;;;0.32;;
75160;SDS011;63738;50.096;8.716;2022-11-14T06:35:58;5.60;;;0.20;;
75160;SDS011;63738;50.096;8.716;2022-11-14T06:38:25;5.97;;;0.30;;
75160;SDS011;63738;50.096;8.716;2022-11-14T06:40:51;6.57;;;0.50;;
75160;SDS011;63738;50.096;8.716;2022-11-14T06:43:16;8.10;;;0.55;;
75160;SDS011;63738;50.096;8.716;2022-11-14T06:45:42;5.68;;;0.15;;
75160;SDS011;63738;50.096;8.716;2022-11-14T06:48:08;7.70;;;0.60;;
75160;SDS011;63738;50.096;8.716;2022-11-14T06:50:33;10.45;;;1.20;;
75160;SDS011;63738;50.096;8.716;2022-11-14T06:52:59;62.17;;;13.75;;
75160;SDS011;63738;50.096;8.716;2022-11-14T06:55:24;11.27;;;1.85;;
75160;SDS011;63738;50.096;8.716;2022-11-14T06:57:53;11.45;;;1.70;;
75160;SDS011;63738;50.096;8.716;2022-11-14T07:00:20;5.43;;;0.30;;
75160;SDS011;63738;50.096;8.716;2022-11-14T07:02:46;6.20;;;0.22;;
75160;SDS011;63738;50.096;8.716;2022-11-14T07:07:38;6.47;;;0.15;;
75160;SDS011;63738;50.096;8.716;2022-11-14T07:10:04;5.82;;;0.47;;
75160;SDS011;63738;50.096;8.716;2022-11-14T07:12:30;6.60;;;0.32;;
75160;SDS011;63738;50.096;8.716;2022-11-14T07:14:56;6.10;;;0.22;;
75160;SDS011;63738;50.096;8.716;2022-11-14T07:17:22;5.88;;;0.50;;
75160;SDS011;63738;50.096;8.716;2022-11-14T07:19:48;6.57;;;0.50;;
75160;SDS011;63738;50.096;8.716;2022-11-14T07:22:14;8.10;;;0.47;;
75160;SDS011;63738;50.096;8.716;2022-11-14T07:24:39;8.50;;;0.68;;
75160;SDS011;63738;50.096;8.716;2022-11-14T07:27:05;10.48;;;0.80;;
75160;SDS011;63738;50.096;8.716;2022-11-14T07:29:33;7.50;;;0.30;;
75160;SDS011;63738;50.096;8.716;2022-11-14T07:31:58;5.63;;;0.60;;
75160;SDS011;63738;50.096;8.716;2022-11-14T07:34:24;8.50;;;0.73;;
75160;SDS011;63738;50.096;8.716;2022-11-14T07:36:50;6.63;;;0.30;;
75160;SDS011;63738;50.096;8.716;2022-11-14T07:39:15;8.52;;;0.47;;
75160;SDS011;63738;50.096;8.716;2022-11-14T07:41:41;6.30;;;0.43;;
75160;SDS011;63738;50.096;8.716;2022-11-14T07:44:07;9.30;;;0.38;;
75160;SDS011;63738;50.096;8.716;2022-11-14T07:46:33;9.73;;;0.73;;
75160;SDS011;63738;50.096;8.716;2022-11-14T07:48:58;6.30;;;0.20;;
75160;SDS011;63738;50.096;8.716;2022-11-14T07:51:24;9.10;;;0.57;;
75160;SDS011;63738;50.096;8.716;2022-11-14T07:53:53;7.68;;;0.50;;
75160;SDS011;63738;50.096;8.716;2022-11-14T07:56:18;6.55;;;0.40;;
75160;SDS011;63738;50.096;8.716;2022-11-14T07:58:46;12.27;;;0.85;;
75160;SDS011;63738;50.096;8.716;2022-11-14T08:01:12;5.93;;;0.30;;
75160;SDS011;63738;50.096;8.716;2022-11-14T08:03:39;8.57;;;0.68;;
75160;SDS011;63738;50.096;8.716;2022-11-14T08:08:32;6.38;;;0.45;;
75160;SDS011;63738;50.096;8.716;2022-11-14T08:10:58;6.85;;;0.40;;
75160;SDS011;63738;50.096;8.716;2022-11-14T08:13:24;8.43;;;0.73;;
75160;SDS011;63738;50.096;8.716;2022-11-14T08:15:50;4.18;;;0.05;;
75160;SDS011;63738;50.096;8.716;2022-11-14T08:18:16;5.78;;;0.30;;
75160;SDS011;63738;50.096;8.716;2022-11-14T08:20:42;7.93;;;0.50;;
75160;SDS011;63738;50.096;8.716;2022-11-14T08:23:08;7.68;;;0.57;;
75160;SDS011;63738;50.096;8.716;2022-11-14T08:25:34;7.38;;;0.68;;
75160;SDS011;63738;50.096;8.716;2022-11-14T08:28:00;7.13;;;0.50;;
75160;SDS011;63738;50.096;8.716;2022-11-14T08:30:26;6.22;;;0.38;;
75160;SDS011;63738;50.096;8.716;2022-11-14T08:32:52;6.28;;;0.30;;
75160;SDS011;63738;50.096;8.716;2022-11-14T08:35:18;6.07;;;0.22;;
75160;SDS011;63738;50.096;8.716;2022-11-14T08:37:43;6.03;;;0.35;;
75160;SDS011;63738;50.096;8.716;2022-11-14T08:40:09;6.10;;;0.30;;
75160;SDS011;63738;50.096;8.716;2022-11-14T08:42:35;9.93;;;0.70;;
75160;SDS011;63738;50.096;8.716;2022-11-14T08:45:01;6.03;;;0.50;;
75160;SDS011;63738;50.096;8.716;2022-11-14T08:47:27;9.35;;;0.70;;
75160;SDS011;63738;50.096;8.716;2022-11-14T08:49:52;8.57;;;0.40;;
75160;SDS011;63738;50.096;8.716;2022-11-14T08:52:18;9.18;;;0.60;;
75160;SDS011;63738;50.096;8.716;2022-11-14T08:54:45;5.60;;;0.40;;
75160;SDS011;63738;50.096;8.716;2022-11-14T08:57:10;6.65;;;0.20;;
75160;SDS011;63738;50.096;8.716;2022-11-14T08:59:39;5.47;;;0.22;;
75160;SDS011;63738;50.096;8.716;2022-11-14T09:02:05;9.90;;;0.40;;
75160;SDS011;63738;50.096;8.716;2022-11-14T09:04:31;7.20;;;0.60;;
75160;SDS011;63738;50.096;8.716;2022-11-14T09:06:56;8.32;;;0.30;;
75160;SDS011;63738;50.096;8.716;2022-11-14T09:09:23;4.82;;;0.38;;
75160;SDS011;63738;50.096;8.716;2022-11-14T09:11:48;5.88;;;0.22;;
75160;SDS011;63738;50.096;8.716;2022-11-14T09:14:14;5.13;;;0.30;;
75160;SDS011;63738;50.096;8.716;2022-11-14T09:16:40;5.75;;;0.25;;
75160;SDS011;63738;50.096;8.716;2022-11-14T09:19:05;4.15;;;0.10;;
75160;SDS011;63738;50.096;8.716;2022-11-14T09:21:31;5.47;;;0.35;;
75160;SDS011;63738;50.096;8.716;2022-11-14T09:23:57;4.43;;;0.28;;
75160;SDS011;63738;50.096;8.716;2022-11-14T09:26:23;6.30;;;0.17;;
75160;SDS011;63738;50.096;8.716;2022-11-14T09:28:48;4.10;;;0.10;;
75160;SDS011;63738;50.096;8.716;2022-11-14T09:31:14;6.50;;;0.10;;
75160;SDS011;63738;50.096;8.716;2022-11-14T09:33:40;5.32;;;0.10;;
75160;SDS011;63738;50.096;8.716;2022-11-14T09:36:06;5.13;;;0.20;;
75160;SDS011;63738;50.096;8.716;2022-11-14T09:38:34;4.70;;;0.10;;
75160;SDS011;63738;50.096;8.716;2022-11-14T09:43:45;4.40;;;0.00;;
75160;SDS011;63738;50.096;8.716;2022-11-14T09:46:45;3.05;;;0.03;;
75160;SDS011;63738;50.096;8.716;2022-11-14T09:55:01;7.22;;;0.30;;
75160;SDS011;63738;50.096;8.716;2022-11-14T09:57:36;4.45;;;0.08;;
75160;SDS011;63738;50.096;8.716;2022-11-14T10:00:21;5.57;;;0.32;;
75160;SDS011;63738;50.096;8.716;2022-11-14T10:17:17;3.33;;;0.10;;
75160;SDS011;63738;50.096;8.716;2022-11-14T10:19:41;4.78;;;0.22;;
75160;SDS011;63738;50.096;8.716;2022-11-14T10:22:36;3.83;;;0.13;;
75160;SDS011;63738;50.096;8.716;2022-11-14T10:25:21;4.03;;;0.00;;
75160;SDS011;63738;50.096;8.716;2022-11-14T10:27:57;3.30;;;0.10;;
75160;SDS011;63738;50.096;8.716;2022-11-14T10:30:40;4.45;;;0.38;;
75160;SDS011;63738;50.096;8.716;2022-11-14T10:33:47;5.80;;;0.25;;
75160;SDS011;63738;50.096;8.716;2022-11-14T10:39:26;3.70;;;0.10;;
75160;SDS011;63738;50.096;8.716;2022-11-14T10:41:55;3.05;;;0.00;;
75160;SDS011;63738;50.096;8.716;2022-11-14T10:44:27;4.22;;;0.10;;
75160;SDS011;63738;50.096;8.716;2022-11-14T10:47:01;3.30;;;0.10;;
75160;SDS011;63738;50.096;8.716;2022-11-14T10:49:30;3.13;;;0.10;;
75160;SDS011;63738;50.096;8.716;2022-11-14T10:52:00;2.38;;;0.00;;
75160;SDS011;63738;50.096;8.716;2022-11-14T10:54:45;3.25;;;0.13;;
75160;SDS011;63738;50.096;8.716;2022-11-14T10:57:20;4.30;;;0.10;;
75160;SDS011;63738;50.096;8.716;2022-11-14T11:02:12;5.15;;;0.00;;
75160;SDS011;63738;50.096;8.716;2022-11-14T11:04:39;3.00;;;0.00;;
75160;SDS011;63738;50.096;8.716;2022-11-14T11:09:31;3.00;;;0.10;;
75160;SDS011;63738;50.096;8.716;2022-11-14T11:12:20;3.38;;;0.00;;
75160;SDS011;63738;50.096;8.716;2022-11-14T11:14:48;2.88;;;0.00;;
75160;SDS011;63738;50.096;8.716;2022-11-14T11:17:33;3.70;;;0.08;;
75160;SDS011;63738;50.096;8.716;2022-11-14T11:20:20;3.92;;;0.00;;
75160;SDS011;63738;50.096;8.716;2022-11-14T11:23:12;2.35;;;0.00;;
75160;SDS011;63738;50.096;8.716;2022-11-14T11:25:43;5.38;;;0.00;;
75160;SDS011;63738;50.096;8.716;2022-11-14T11:28:14;3.13;;;0.10;;
75160;SDS011;63738;50.096;8.716;2022-11-14T11:33:26;3.40;;;0.00;;
75160;SDS011;63738;50.096;8.716;2022-11-14T11:36:03;2.13;;;0.00;;
75160;SDS011;63738;50.096;8.716;2022-11-14T11:38:38;2.85;;;0.00;;
75160;SDS011;63738;50.096;8.716;2022-11-14T11:41:06;1.88;;;0.00;;
75160;SDS011;63738;50.096;8.716;2022-11-14T11:46:55;4.15;;;0.28;;
75160;SDS011;63738;50.096;8.716;2022-11-14T11:49:15;4.45;;;0.13;;
75160;SDS011;63738;50.096;8.716;2022-11-14T11:51:47;2.83;;;0.10;;
75160;SDS011;63738;50.096;8.716;2022-11-14T11:54:19;2.75;;;0.00;;
75160;SDS011;63738;50.096;8.716;2022-11-14T11:56:52;3.03;;;0.10;;
75160;SDS011;63738;50.096;8.716;2022-11-14T12:02:16;2.97;;;0.00;;
75160;SDS011;63738;50.096;8.716;2022-11-14T12:04:47;1.17;;;0.00;;
75160;SDS011;63738;50.096;8.716;2022-11-14T12:07:18;2.70;;;0.00;;
75160;SDS011;63738;50.096;8.716;2022-11-14T12:10:02;4.13;;;0.00;;
75160;SDS011;63738;50.096;8.716;2022-11-14T12:15:12;5.72;;;0.00;;
75160;SDS011;63738;50.096;8.716;2022-11-14T12:31:34;4.03;;;0.10;;
75160;SDS011;63738;50.096;8.716;2022-11-14T12:36:44;1.88;;;0.00;;
75160;SDS011;63738;50.096;8.716;2022-11-14T12:39:19;2.25;;;0.00;;
75160;SDS011;63738;50.096;8.716;2022-11-14T12:42:04;8.15;;;0.00;;
75160;SDS011;63738;50.096;8.716;2022-11-14T12:44:38;3.08;;;0.00;;
75160;SDS011;63738;50.096;8.716;2022-11-14T12:52:56;1.58;;;0.00;;
75160;SDS011;63738;50.096;8.716;2022-11-14T13:00:56;3.90;;;0.00;;
75160;SDS011;63738;50.096;8.716;2022-11-14T13:09:30;3.08;;;0.00;;
75160;SDS011;63738;50.096;8.716;2022-11-14T13:15:28;2.65;;;0.00;;
75160;SDS011;63738;50.096;8.716;2022-11-14T13:21:02;2.42;;;0.00;;
75160;SDS011;63738;50.096;8.716;2022-11-14T13:28:51;0.85;;;0.00;;
75160;SDS011;63738;50.096;8.716;2022-11-14T13:31:21;1.80;;;0.00;;
75160;SDS011;63738;50.096;8.716;2022-11-14T13:33:55;2.05;;;0.00;;
75160;SDS011;63738;50.096;8.716;2022-11-14T13:47:35;2.00;;;0.00;;
75160;SDS011;63738;50.096;8.716;2022-11-14T13:50:31;2.35;;;0.00;;
75160;SDS011;63738;50.096;8.716;2022-11-14T13:53:00;2.20;;;0.00;;
75160;SDS011;63738;50.096;8.716;2022-11-14T14:09:49;1.85;;;0.00;;
75160;SDS011;63738;50.096;8.716;2022-11-14T14:15:13;1.80;;;0.00;;
75160;SDS011;63738;50.096;8.716;2022-11-14T14:23:00;1.05;;;0.00;;
75160;SDS011;63738;50.096;8.716;2022-11-14T14:26:10;2.70;;;0.00;;
75160;SDS011;63738;50.096;8.716;2022-11-14T14:31:44;2.35;;;0.00;;
75160;SDS011;63738;50.096;8.716;2022-11-14T14:34:23;1.73;;;0.00;;
75160;SDS011;63738;50.096;8.716;2022-11-14T14:36:53;2.30;;;0.00;;
75160;SDS011;63738;50.096;8.716;2022-11-14T14:39:21;2.42;;;0.00;;
75160;SDS011;63738;50.096;8.716;2022-11-14T14:41:49;1.35;;;0.00;;
75160;SDS011;63738;50.096;8.716;2022-11-14T14:44:21;2.17;;;0.00;;
75160;SDS011;63738;50.096;8.716;2022-11-14T14:46:53;2.20;;;0.00;;
75160;SDS011;63738;50.096;8.716;2022-11-14T14:51:58;1.65;;;0.00;;
75160;SDS011;63738;50.096;8.716;2022-11-14T14:54:25;2.25;;;0.00;;
75160;SDS011;63738;50.096;8.716;2022-11-14T14:56:59;1.35;;;0.00;;
75160;SDS011;63738;50.096;8.716;2022-11-14T14:59:27;1.13;;;0.00;;
75160;SDS011;63738;50.096;8.716;2022-11-14T15:01:54;1.35;;;0.00;;
75160;SDS011;63738;50.096;8.716;2022-11-14T15:04:22;1.95;;;0.00;;
75160;SDS011;63738;50.096;8.716;2022-11-14T15:06:50;1.42;;;0.00;;
75160;SDS011;63738;50.096;8.716;2022-11-14T15:09:21;2.45;;;0.00;;
75160;SDS011;63738;50.096;8.716;2022-11-14T15:11:49;1.52;;;0.00;;
75160;SDS011;63738;50.096;8.716;2022-11-14T15:14:18;1.42;;;0.00;;
75160;SDS011;63738;50.096;8.716;2022-11-14T15:16:51;0.95;;;0.00;;
75160;SDS011;63738;50.096;8.716;2022-11-14T15:19:18;1.40;;;0.00;;
75160;SDS011;63738;50.096;8.716;2022-11-14T15:24:41;3.15;;;0.00;;
75160;SDS011;63738;50.096;8.716;2022-11-14T15:27:14;0.82;;;0.00;;
75160;SDS011;63738;50.096;8.716;2022-11-14T15:29:44;1.92;;;0.00;;
75160;SDS011;63738;50.096;8.716;2022-11-14T15:32:16;1.95;;;0.00;;
75160;SDS011;63738;50.096;8.716;2022-11-14T15:35:05;1.77;;;0.00;;
75160;SDS011;63738;50.096;8.716;2022-11-14T15:38:19;1.17;;;0.00;;
75160;SDS011;63738;50.096;8.716;2022-11-14T15:40:38;1.17;;;0.00;;
75160;SDS011;63738;50.096;8.716;2022-11-14T15:48:57;1.20;;;0.00;;
75160;SDS011;63738;50.096;8.716;2022-11-14T15:51:36;1.05;;;0.00;;
75160;SDS011;63738;50.096;8.716;2022-11-14T15:57:12;2.22;;;0.00;;
75160;SDS011;63738;50.096;8.716;2022-11-14T15:59:39;0.82;;;0.00;;
75160;SDS011;63738;50.096;8.716;2022-11-14T16:02:26;1.80;;;0.00;;
75160;SDS011;63738;50.096;8.716;2022-11-14T16:04:53;1.38;;;0.00;;
75160;SDS011;63738;50.096;8.716;2022-11-14T16:07:19;1.30;;;0.00;;
75160;SDS011;63738;50.096;8.716;2022-11-14T16:09:46;2.58;;;0.00;;
75160;SDS011;63738;50.096;8.716;2022-11-14T16:12:11;0.65;;;0.00;;
75160;SDS011;63738;50.096;8.716;2022-11-14T16:14:37;0.75;;;0.00;;
75160;SDS011;63738;50.096;8.716;2022-11-14T16:17:03;0.98;;;0.00;;
75160;SDS011;63738;50.096;8.716;2022-11-14T16:19:29;0.85;;;0.00;;
75160;SDS011;63738;50.096;8.716;2022-11-14T16:22:01;1.15;;;0.00;;
75160;SDS011;63738;50.096;8.716;2022-11-14T16:24:27;2.85;;;0.00;;
75160;SDS011;63738;50.096;8.716;2022-11-14T16:26:54;1.23;;;0.00;;
75160;SDS011;63738;50.096;8.716;2022-11-14T16:29:21;1.30;;;0.00;;
75160;SDS011;63738;50.096;8.716;2022-11-14T16:34:19;1.23;;;0.00;;
75160;SDS011;63738;50.096;8.716;2022-11-14T16:36:46;0.68;;;0.00;;
75160;SDS011;63738;50.096;8.716;2022-11-14T16:39:12;1.80;;;0.00;;
75160;SDS011;63738;50.096;8.716;2022-11-14T16:41:38;2.15;;;0.00;;
75160;SDS011;63738;50.096;8.716;2022-11-14T16:44:05;1.17;;;0.00;;
75160;SDS011;63738;50.096;8.716;2022-11-14T16:46:33;1.15;;;0.00;;
75160;SDS011;63738;50.096;8.716;2022-11-14T16:48:58;2.30;;;0.00;;
75160;SDS011;63738;50.096;8.716;2022-11-14T16:51:24;1.05;;;0.00;;
75160;SDS011;63738;50.096;8.716;2022-11-14T16:53:53;2.25;;;0.00;;
75160;SDS011;63738;50.096;8.716;2022-11-14T16:56:19;1.10;;;0.00;;
75160;SDS011;63738;50.096;8.716;2022-11-14T16:58:44;1.02;;;0.00;;
75160;SDS011;63738;50.096;8.716;2022-11-14T17:01:12;0.95;;;0.00;;
75160;SDS011;63738;50.096;8.716;2022-11-14T17:03:42;1.00;;;0.00;;
75160;SDS011;63738;50.096;8.716;2022-11-14T17:06:07;3.65;;;0.08;;
75160;SDS011;63738;50.096;8.716;2022-11-14T17:08:36;1.67;;;0.00;;
75160;SDS011;63738;50.096;8.716;2022-11-14T17:11:06;2.33;;;0.00;;
75160;SDS011;63738;50.096;8.716;2022-11-14T17:13:33;1.13;;;0.00;;
75160;SDS011;63738;50.096;8.716;2022-11-14T17:16:01;0.63;;;0.00;;
75160;SDS011;63738;50.096;8.716;2022-11-14T17:18:28;3.30;;;0.00;;
75160;SDS011;63738;50.096;8.716;2022-11-14T17:20:54;1.67;;;0.00;;
75160;SDS011;63738;50.096;8.716;2022-11-14T17:23:19;3.60;;;0.00;;
75160;SDS011;63738;50.096;8.716;2022-11-14T17:25:45;1.60;;;0.00;;
75160;SDS011;63738;50.096;8.716;2022-11-14T17:28:11;3.40;;;0.00;;
75160;SDS011;63738;50.096;8.716;2022-11-14T17:30:40;0.98;;;0.00;;
75160;SDS011;63738;50.096;8.716;2022-11-14T17:33:06;0.90;;;0.00;;
75160;SDS011;63738;50.096;8.716;2022-11-14T17:35:33;0.50;;;0.00;;